createdAt,value
2019-05-17T00:01:42.402Z,19.00
2019-05-17T00:04:12.449Z,18.67
2019-05-17T00:06:42.464Z,18.17
2019-05-17T00:09:12.461Z,19.90
2019-05-17T00:11:42.502Z,17.65
2019-05-17T00:14:12.681Z,20.57
2019-05-17T00:16:42.687Z,17.33
2019-05-17T00:19:12.632Z,18.20
2019-05-17T00:21:42.620Z,18.00
2019-05-17T00:24:12.616Z,20.70
2019-05-17T00:26:42.697Z,19.07
2019-05-17T00:29:12.710Z,18.00
2019-05-17T00:31:42.769Z,18.30
2019-05-17T00:34:12.796Z,18.53
2019-05-17T00:36:42.731Z,19.20
2019-05-17T00:39:12.720Z,17.57
2019-05-17T00:41:42.744Z,17.77
2019-05-17T00:44:12.874Z,20.50
2019-05-17T00:46:42.825Z,18.90
2019-05-17T00:49:12.884Z,20.20
2019-05-17T00:51:43.082Z,17.70
2019-05-17T00:54:13.055Z,19.57
2019-05-17T00:56:43.066Z,18.10
2019-05-17T00:59:13.160Z,19.70
2019-05-17T01:01:43.272Z,18.60
2019-05-17T01:04:13.390Z,18.20
2019-05-17T01:06:43.411Z,19.90
2019-05-17T01:09:13.484Z,19.13
2019-05-17T01:11:43.626Z,18.10
2019-05-17T01:14:13.720Z,19.20
2019-05-17T01:16:43.683Z,18.50
2019-05-17T01:19:13.668Z,22.00
2019-05-17T01:21:43.740Z,18.27
2019-05-17T01:24:13.816Z,19.83
2019-05-17T01:26:43.867Z,20.33
2019-05-17T01:29:13.855Z,20.80
2019-05-17T01:31:46.351Z,20.62
2019-05-17T01:34:16.701Z,19.85
2019-05-17T01:36:46.973Z,18.95
2019-05-17T01:39:20.642Z,18.73
2019-05-17T01:41:48.717Z,20.20
2019-05-17T01:44:18.796Z,20.83
2019-05-17T01:46:48.818Z,20.47
2019-05-17T01:49:18.756Z,19.12
2019-05-17T01:51:48.815Z,19.03
2019-05-17T01:54:18.830Z,20.32
2019-05-17T01:56:48.922Z,21.70
2019-05-17T01:59:19.031Z,20.17
2019-05-17T02:01:50.704Z,19.60
2019-05-17T02:04:20.777Z,23.63
2019-05-17T02:06:50.982Z,19.20
2019-05-17T02:09:35.009Z,20.40
2019-05-17T02:11:53.018Z,18.60
2019-05-17T02:14:23.022Z,22.67
2019-05-17T02:16:52.970Z,21.17
2019-05-17T02:19:22.949Z,21.90
2019-05-17T02:21:52.919Z,21.27
2019-05-17T02:24:22.940Z,21.27
2019-05-17T02:26:53.048Z,21.83
2019-05-17T02:29:23.057Z,20.17
2019-05-17T02:31:53.736Z,20.47
2019-05-17T02:34:23.823Z,20.63
2019-05-17T02:36:53.973Z,22.90
2019-05-17T02:39:23.989Z,20.73
2019-05-17T02:41:54.008Z,21.73
2019-05-17T02:44:24.045Z,21.50
2019-05-17T02:46:54.073Z,19.90
2019-05-17T02:49:24.122Z,21.80
2019-05-17T02:51:54.171Z,20.93
2019-05-17T02:54:24.277Z,22.57
2019-05-17T02:56:54.383Z,19.10
2019-05-17T02:59:24.610Z,19.53
2019-05-17T03:01:54.863Z,21.03
2019-05-17T03:04:24.956Z,21.20
2019-05-17T03:06:55.143Z,21.67
2019-05-17T03:09:25.215Z,23.73
2019-05-17T03:11:57.136Z,22.73
2019-05-17T03:14:27.155Z,20.17
2019-05-17T03:16:57.098Z,22.40
2019-05-17T03:19:27.085Z,21.23
2019-05-17T03:21:57.175Z,20.43
2019-05-17T03:24:27.263Z,20.70
2019-05-17T03:26:57.250Z,21.37
2019-05-17T03:29:27.339Z,20.87
2019-05-17T03:32:00.550Z,23.27
2019-05-17T03:34:36.285Z,20.27
2019-05-17T03:37:06.473Z,21.37
2019-05-17T03:39:34.339Z,21.80
2019-05-17T03:42:04.602Z,21.97
2019-05-17T03:44:34.783Z,20.57
2019-05-17T03:47:04.943Z,20.00
2019-05-17T03:49:39.157Z,21.20
2019-05-17T03:52:06.972Z,22.30
2019-05-17T03:54:37.107Z,20.87
2019-05-17T03:57:07.213Z,19.37
2019-05-17T03:59:37.339Z,22.37
2019-05-17T04:02:07.420Z,22.50
2019-05-17T04:04:37.443Z,21.70
2019-05-17T04:07:07.645Z,20.37
2019-05-17T04:09:37.925Z,21.07
2019-05-17T04:12:08.057Z,21.47
2019-05-17T04:14:38.232Z,19.53
2019-05-17T04:17:08.282Z,20.33
2019-05-17T04:19:38.279Z,21.00
2019-05-17T04:22:08.454Z,21.97
2019-05-17T04:24:38.411Z,21.97
2019-05-17T04:27:08.546Z,21.63
2019-05-17T04:29:38.516Z,19.97
2019-05-17T04:32:08.667Z,21.90
2019-05-17T04:34:38.789Z,21.17
2019-05-17T04:37:08.887Z,19.87
2019-05-17T04:39:38.976Z,19.97
2019-05-17T04:42:09.017Z,21.30
2019-05-17T04:44:39.033Z,20.33
2019-05-17T04:47:09.432Z,21.07
2019-05-17T04:49:39.605Z,19.90
2019-05-17T04:52:09.588Z,18.73
2019-05-17T04:54:42.303Z,19.10
2019-05-17T04:57:13.180Z,19.20
2019-05-17T04:59:43.626Z,18.67
2019-05-17T05:02:13.739Z,20.97
2019-05-17T05:04:43.939Z,19.30
2019-05-17T05:07:14.069Z,21.30
2019-05-17T05:09:44.753Z,21.97
2019-05-17T05:12:14.712Z,21.07
2019-05-17T05:14:44.631Z,21.27
2019-05-17T05:17:14.760Z,19.23
2019-05-17T05:19:44.789Z,21.23
2019-05-17T05:22:17.592Z,21.00
2019-05-17T05:24:46.668Z,22.25
2019-05-17T05:27:16.686Z,19.95
2019-05-17T05:29:46.638Z,21.75
2019-05-17T05:32:16.655Z,18.70
2019-05-17T05:34:46.650Z,19.40
2019-05-17T05:37:16.686Z,20.17
2019-05-17T05:39:46.689Z,19.92
2019-05-17T05:42:16.844Z,20.37
2019-05-17T05:44:46.887Z,19.62
2019-05-17T05:47:16.800Z,19.82
2019-05-17T05:49:46.844Z,19.52
2019-05-17T05:52:16.965Z,19.95
2019-05-17T05:54:46.949Z,20.88
2019-05-17T05:57:17.145Z,19.43
2019-05-17T05:59:47.182Z,20.75
2019-05-17T06:02:17.213Z,19.13
2019-05-17T06:04:47.161Z,21.43
2019-05-17T06:07:17.252Z,19.40
2019-05-17T06:09:47.283Z,19.73
2019-05-17T06:12:23.713Z,20.43
2019-05-17T06:14:49.059Z,21.20
2019-05-17T06:17:21.480Z,19.17
2019-05-17T06:19:51.682Z,19.30
2019-05-17T06:22:22.395Z,20.30
2019-05-17T06:24:52.449Z,19.50
2019-05-17T06:27:22.416Z,19.70
2019-05-17T06:29:52.520Z,17.67
2019-05-17T06:32:22.957Z,18.97
2019-05-17T06:34:53.043Z,18.70
2019-05-17T06:37:22.958Z,17.80
2019-05-17T06:39:52.899Z,17.95
2019-05-17T06:42:37.422Z,13.27
2019-05-17T06:44:54.816Z,13.57
2019-05-17T06:47:24.790Z,16.43
2019-05-17T06:49:54.738Z,16.10
2019-05-17T06:52:24.833Z,15.13
2019-05-17T06:54:54.872Z,14.27
2019-05-17T06:57:24.993Z,13.97
2019-05-17T06:59:54.915Z,15.27
2019-05-17T07:02:25.013Z,15.83
2019-05-17T07:04:56.572Z,14.57
2019-05-17T07:07:26.684Z,13.67
2019-05-17T07:10:00.483Z,13.67
2019-05-17T07:12:30.914Z,15.00
2019-05-17T07:15:01.623Z,13.40
2019-05-17T07:17:32.026Z,12.20
2019-05-17T07:20:02.097Z,11.40
2019-05-17T07:22:32.053Z,12.73
2019-05-17T07:25:02.109Z,11.70
2019-05-17T07:27:41.292Z,12.50
2019-05-17T07:30:04.511Z,12.43
2019-05-17T07:32:34.454Z,12.20
2019-05-17T07:35:04.832Z,12.77
2019-05-17T07:37:34.745Z,11.30
2019-05-17T07:40:05.720Z,11.30
2019-05-17T07:42:35.739Z,12.30
2019-05-17T07:45:06.847Z,9.80
2019-05-17T07:47:36.967Z,12.10
2019-05-17T07:50:07.245Z,11.93
2019-05-17T07:52:39.581Z,11.50
2019-05-17T07:55:10.793Z,11.57
2019-05-17T07:57:41.313Z,10.23
2019-05-17T08:00:13.292Z,11.67
2019-05-17T08:02:43.394Z,10.87
2019-05-17T08:05:14.042Z,11.40
2019-05-17T08:07:44.216Z,11.80
2019-05-17T08:10:14.516Z,11.40
2019-05-17T08:12:44.438Z,10.83
2019-05-17T08:15:14.942Z,11.50
2019-05-17T08:17:45.029Z,11.17
2019-05-17T08:20:15.419Z,12.20
2019-05-17T08:22:45.373Z,10.80
2019-05-17T08:25:16.761Z,13.03
2019-05-17T08:27:46.951Z,12.27
2019-05-17T08:30:20.766Z,11.00
2019-05-17T08:32:50.826Z,11.60
2019-05-17T08:35:21.030Z,12.57
2019-05-17T08:37:51.155Z,10.53
2019-05-17T08:40:21.298Z,12.00
2019-05-17T08:42:51.344Z,12.83
2019-05-17T08:45:21.367Z,13.03
2019-05-17T08:47:51.466Z,12.70
2019-05-17T08:50:21.716Z,11.47
2019-05-17T08:52:51.672Z,10.40
2019-05-17T08:55:21.778Z,11.17
2019-05-17T08:57:51.789Z,11.80
2019-05-17T09:00:21.999Z,12.40
2019-05-17T09:02:51.946Z,12.63
2019-05-17T09:05:22.022Z,12.27
2019-05-17T09:07:51.964Z,12.10
2019-05-17T09:10:22.209Z,11.20
2019-05-17T09:12:52.311Z,11.40
2019-05-17T09:15:22.518Z,10.80
2019-05-17T09:17:52.460Z,11.70
2019-05-17T09:20:22.482Z,12.00
2019-05-17T09:22:52.504Z,11.03
2019-05-17T09:25:22.522Z,10.33
2019-05-17T09:27:52.599Z,10.67
2019-05-17T09:30:25.598Z,11.33
2019-05-17T09:32:55.432Z,10.90
2019-05-17T09:35:25.353Z,9.67
2019-05-17T09:37:55.314Z,10.50
2019-05-17T09:40:25.553Z,10.40
2019-05-17T09:42:55.499Z,10.20
2019-05-17T09:45:25.527Z,10.20
2019-05-17T09:47:55.656Z,11.47
2019-05-17T09:50:25.749Z,9.60
2019-05-17T09:52:55.767Z,9.20
2019-05-17T09:55:26.017Z,10.27
2019-05-17T09:57:55.989Z,9.43
2019-05-17T10:00:26.342Z,8.30
2019-05-17T10:02:56.869Z,9.37
2019-05-17T10:05:27.004Z,10.40
2019-05-17T10:07:57.091Z,8.53
2019-05-17T10:10:27.203Z,9.50
2019-05-17T10:12:57.282Z,9.40
2019-05-17T10:15:29.954Z,8.97
2019-05-17T10:18:00.650Z,9.30
2019-05-17T10:20:30.675Z,8.90
2019-05-17T10:23:00.718Z,10.73
2019-05-17T10:25:30.647Z,9.53
2019-05-17T10:28:00.701Z,7.47
2019-05-17T10:30:30.689Z,7.03
2019-05-17T10:33:00.714Z,7.60
2019-05-17T10:35:30.778Z,8.80
2019-05-17T10:38:00.796Z,7.50
2019-05-17T10:40:32.450Z,8.67
2019-05-17T10:43:02.372Z,8.20
2019-05-17T10:45:32.943Z,8.77
2019-05-17T10:48:02.894Z,8.70
2019-05-17T10:50:33.018Z,9.07
2019-05-17T10:53:03.086Z,9.27
2019-05-17T10:55:33.154Z,7.97
2019-05-17T10:58:03.242Z,7.30
2019-05-17T11:00:33.602Z,8.03
2019-05-17T11:03:03.644Z,8.27
2019-05-17T11:05:33.665Z,7.23
2019-05-17T11:08:03.656Z,7.27
2019-05-17T11:10:33.822Z,7.20
2019-05-17T11:13:03.904Z,6.03
2019-05-17T11:15:34.088Z,7.00
2019-05-17T11:18:04.248Z,6.70
2019-05-17T11:20:34.458Z,5.97
2019-05-17T11:23:04.638Z,6.07
2019-05-17T11:25:34.703Z,6.50
2019-05-17T11:28:04.977Z,5.90
2019-05-17T11:30:35.563Z,6.67
2019-05-17T11:33:05.796Z,5.87
2019-05-17T11:35:35.936Z,7.83
2019-05-17T11:38:06.107Z,8.80
2019-05-17T11:40:36.186Z,5.40
2019-05-17T11:43:06.341Z,6.07
2019-05-17T11:45:36.585Z,7.00
2019-05-17T11:48:06.700Z,6.93
2019-05-17T11:50:36.691Z,7.17
2019-05-17T11:53:06.783Z,5.37
2019-05-17T11:55:36.949Z,5.80
2019-05-17T11:58:07.060Z,4.60
2019-05-17T12:00:37.351Z,5.20
2019-05-17T12:03:07.578Z,6.50
2019-05-17T12:05:37.830Z,5.10
2019-05-17T12:08:08.780Z,6.07
2019-05-17T12:10:39.009Z,6.03
2019-05-17T12:13:09.095Z,5.70
2019-05-17T12:15:44.716Z,6.80
2019-05-17T12:18:11.047Z,4.70
2019-05-17T12:20:41.263Z,4.87
2019-05-17T12:23:11.455Z,5.17
2019-05-17T12:25:41.657Z,5.00
2019-05-17T12:28:11.724Z,4.57
2019-05-17T12:30:41.982Z,4.53
2019-05-17T12:33:11.903Z,4.27
2019-05-17T12:35:41.997Z,4.50
2019-05-17T12:38:12.036Z,4.10
2019-05-17T12:40:42.047Z,3.90
2019-05-17T12:43:12.036Z,3.90
2019-05-17T12:45:42.132Z,5.00
2019-05-17T12:48:13.046Z,3.23
2019-05-17T12:50:43.168Z,4.30
2019-05-17T12:53:13.242Z,4.33
2019-05-17T12:55:43.308Z,3.53
2019-05-17T12:58:13.450Z,3.47
2019-05-17T13:00:43.508Z,3.97
2019-05-17T13:03:13.608Z,4.00
2019-05-17T13:05:43.544Z,5.50
2019-05-17T13:08:13.484Z,5.87
2019-05-17T13:10:43.606Z,5.30
2019-05-17T13:13:13.760Z,4.33
2019-05-17T13:15:43.991Z,4.03
2019-05-17T13:18:14.179Z,3.60
2019-05-17T13:20:44.344Z,4.10
2019-05-17T13:23:14.431Z,4.63
2019-05-17T13:25:44.686Z,4.23
2019-05-17T13:28:14.654Z,4.73
2019-05-17T13:30:44.666Z,4.00
2019-05-17T13:33:14.733Z,3.70
2019-05-17T13:35:44.788Z,4.30
2019-05-17T13:38:14.779Z,5.13
2019-05-17T13:40:44.970Z,5.10
2019-05-17T13:43:15.174Z,4.57
2019-05-17T13:45:45.425Z,4.10
2019-05-17T13:48:15.439Z,5.20
2019-05-17T13:50:45.556Z,5.43
2019-05-17T13:53:15.620Z,5.53
2019-05-17T13:55:45.681Z,5.60
2019-05-17T13:58:15.749Z,4.87
2019-05-17T14:00:46.085Z,4.10
2019-05-17T14:03:17.173Z,4.80
2019-05-17T14:05:47.201Z,4.77
2019-05-17T14:08:17.210Z,5.10
2019-05-17T14:10:47.966Z,4.67
2019-05-17T14:13:17.969Z,4.10
2019-05-17T14:15:48.180Z,4.47
2019-05-17T14:18:18.216Z,3.70
2019-05-17T14:20:48.326Z,4.37
2019-05-17T14:23:18.240Z,4.30
2019-05-17T14:25:48.254Z,3.53
2019-05-17T14:28:18.319Z,3.53
2019-05-17T14:30:48.425Z,3.50
2019-05-17T14:33:18.624Z,3.40
2019-05-17T14:35:48.597Z,4.33
2019-05-17T14:38:18.517Z,4.20
2019-05-17T14:41:07.303Z,3.67
2019-05-17T14:43:20.823Z,4.37
2019-05-17T14:45:50.901Z,3.80
2019-05-17T14:48:20.874Z,4.10
2019-05-17T14:50:50.940Z,3.70
2019-05-17T14:53:20.958Z,3.50
2019-05-17T14:55:51.046Z,3.67
2019-05-17T14:58:21.000Z,4.03
2019-05-17T15:00:51.024Z,4.27
2019-05-17T15:03:21.222Z,3.27
2019-05-17T15:05:51.300Z,3.43
2019-05-17T15:08:21.405Z,2.90
2019-05-17T15:10:51.328Z,2.70
2019-05-17T15:13:21.377Z,3.07
2019-05-17T15:15:51.394Z,2.90
2019-05-17T15:18:21.399Z,2.80
2019-05-17T15:20:51.448Z,2.87
2019-05-17T15:23:22.333Z,2.80
2019-05-17T15:25:52.428Z,3.22
2019-05-17T15:28:22.464Z,3.20
2019-05-17T15:30:52.638Z,2.83
2019-05-17T15:33:22.742Z,2.60
2019-05-17T15:35:52.727Z,2.72
2019-05-17T15:38:22.823Z,3.12
2019-05-17T15:40:53.082Z,2.52
2019-05-17T15:43:23.025Z,2.50
2019-05-17T15:45:53.022Z,2.47
2019-05-17T15:48:22.978Z,2.47
2019-05-17T15:50:52.976Z,2.70
2019-05-17T15:53:23.202Z,2.40
2019-05-17T15:55:53.190Z,2.50
2019-05-17T15:58:23.261Z,2.50
2019-05-17T16:00:53.350Z,2.53
2019-05-17T16:03:24.667Z,2.33
2019-05-17T16:05:54.655Z,2.23
2019-05-17T16:08:24.675Z,1.93
2019-05-17T16:10:54.655Z,2.73
2019-05-17T16:13:24.739Z,2.23
2019-05-17T16:15:54.749Z,3.00
2019-05-17T16:18:24.780Z,2.70
2019-05-17T16:20:54.705Z,2.40
2019-05-17T16:23:24.739Z,2.67
2019-05-17T16:25:54.725Z,2.27
2019-05-17T16:28:24.741Z,2.50
2019-05-17T16:30:54.727Z,2.30
2019-05-17T16:33:24.757Z,2.63
2019-05-17T16:35:54.763Z,2.43
2019-05-17T16:38:24.708Z,2.67
2019-05-17T16:40:54.716Z,2.83
2019-05-17T16:43:25.124Z,2.60
2019-05-17T16:45:55.065Z,2.50
2019-05-17T16:48:25.077Z,2.37
2019-05-17T16:50:55.143Z,2.70
2019-05-17T16:53:25.085Z,2.70
2019-05-17T16:55:55.136Z,2.33
2019-05-17T16:58:25.174Z,2.23
2019-05-17T17:00:55.961Z,2.90
2019-05-17T17:03:41.648Z,3.00
2019-05-17T17:05:57.631Z,3.10
2019-05-17T17:08:27.752Z,2.50
2019-05-17T17:10:57.743Z,2.60
2019-05-17T17:13:33.226Z,2.85
2019-05-17T17:15:59.576Z,2.50
2019-05-17T17:18:29.650Z,2.70
2019-05-17T17:20:59.757Z,2.73
2019-05-17T17:23:29.818Z,2.50
2019-05-17T17:25:59.918Z,2.42
2019-05-17T17:28:30.078Z,2.50
2019-05-17T17:31:00.183Z,2.63
2019-05-17T17:33:30.322Z,2.50
2019-05-17T17:36:00.403Z,2.40
2019-05-17T17:38:30.425Z,2.80
2019-05-17T17:41:00.518Z,2.30
2019-05-17T17:43:30.619Z,2.57
2019-05-17T17:46:00.726Z,2.80
2019-05-17T17:48:30.851Z,3.07
2019-05-17T17:51:01.022Z,3.67
2019-05-17T17:53:31.017Z,3.07
2019-05-17T17:56:01.206Z,2.90
2019-05-17T17:58:31.344Z,3.20
2019-05-17T18:01:01.450Z,2.80
2019-05-17T18:03:31.395Z,3.27
2019-05-17T18:06:01.536Z,3.03
2019-05-17T18:08:34.607Z,2.67
2019-05-17T18:11:03.397Z,2.87
2019-05-17T18:13:33.423Z,2.90
2019-05-17T18:16:03.395Z,2.67
2019-05-17T18:18:33.359Z,3.30
2019-05-17T18:21:03.580Z,3.10
2019-05-17T18:23:33.659Z,2.60
2019-05-17T18:26:06.244Z,3.40
2019-05-17T18:28:36.398Z,3.10
2019-05-17T18:31:06.829Z,2.80
2019-05-17T18:33:36.842Z,3.03
2019-05-17T18:36:07.000Z,2.90
2019-05-17T18:38:38.508Z,2.50
2019-05-17T18:41:08.689Z,2.85
2019-05-17T18:43:38.764Z,2.33
2019-05-17T18:46:08.840Z,2.93
2019-05-17T18:48:39.062Z,2.60
2019-05-17T18:51:09.215Z,2.80
2019-05-17T18:53:39.376Z,3.07
2019-05-17T18:56:09.482Z,3.03
2019-05-17T18:58:39.501Z,2.90
2019-05-17T19:01:09.567Z,3.20
2019-05-17T19:03:39.480Z,2.83
2019-05-17T19:06:09.660Z,3.37
2019-05-17T19:08:39.738Z,2.93
2019-05-17T19:11:09.834Z,2.87
2019-05-17T19:13:39.839Z,2.90
2019-05-17T19:16:09.926Z,3.40
2019-05-17T19:18:39.834Z,3.20
2019-05-17T19:21:09.860Z,2.63
2019-05-17T19:23:39.779Z,3.30
2019-05-17T19:26:10.098Z,2.90
2019-05-17T19:28:40.127Z,3.00
2019-05-17T19:31:10.157Z,3.40
2019-05-17T19:33:40.148Z,2.97
2019-05-17T19:36:10.256Z,3.50
2019-05-17T19:38:40.329Z,5.70
2019-05-17T19:41:10.557Z,4.50
2019-05-17T19:43:40.474Z,5.43
2019-05-17T19:46:10.704Z,6.27
2019-05-17T19:48:40.983Z,4.80
2019-05-17T19:51:11.031Z,3.57
2019-05-17T19:53:41.126Z,3.70
2019-05-17T19:56:11.090Z,4.37
2019-05-17T19:58:41.173Z,4.33
2019-05-17T20:01:11.116Z,4.20
2019-05-17T20:03:41.131Z,5.20
2019-05-17T20:06:11.240Z,5.30
2019-05-17T20:08:41.289Z,5.03
2019-05-17T20:11:11.293Z,4.80
2019-05-17T20:13:41.288Z,4.63
2019-05-17T20:16:11.315Z,4.80
2019-05-17T20:18:41.334Z,5.47
2019-05-17T20:21:11.409Z,4.53
2019-05-17T20:23:43.665Z,4.60
2019-05-17T20:26:13.097Z,4.67
2019-05-17T20:28:43.162Z,4.60
2019-05-17T20:31:13.247Z,4.20
2019-05-17T20:33:43.353Z,4.70
2019-05-17T20:36:13.560Z,4.60
2019-05-17T20:38:43.665Z,4.55
2019-05-17T20:41:13.748Z,4.90
2019-05-17T20:43:43.885Z,4.77
2019-05-17T20:46:13.918Z,4.30
2019-05-17T20:48:44.023Z,5.00
2019-05-17T20:51:14.085Z,5.33
2019-05-17T20:53:44.092Z,6.20
2019-05-17T20:56:14.066Z,5.40
2019-05-17T20:58:43.996Z,6.10
2019-05-17T21:01:14.172Z,6.83
2019-05-17T21:03:44.252Z,5.93
2019-05-17T21:06:14.273Z,5.33
2019-05-17T21:08:46.322Z,5.17
2019-05-17T21:11:16.020Z,5.90
2019-05-17T21:13:46.167Z,5.57
2019-05-17T21:16:16.397Z,4.63
2019-05-17T21:18:46.478Z,4.77
2019-05-17T21:21:16.619Z,6.07
2019-05-17T21:23:46.685Z,5.97
2019-05-17T21:26:16.617Z,5.20
2019-05-17T21:28:47.351Z,5.77
2019-05-17T21:31:17.420Z,5.23
2019-05-17T21:33:47.413Z,5.13
2019-05-17T21:36:17.365Z,5.03
2019-05-17T21:38:47.560Z,4.93
2019-05-17T21:41:17.572Z,5.70
2019-05-17T21:43:47.508Z,5.60
2019-05-17T21:46:17.591Z,6.63
2019-05-17T21:48:47.632Z,5.77
2019-05-17T21:51:17.853Z,6.10
2019-05-17T21:53:47.872Z,6.60
2019-05-17T21:56:17.902Z,7.47
2019-05-17T21:58:47.808Z,6.90
2019-05-17T22:01:21.743Z,6.27
2019-05-17T22:03:51.930Z,5.50
2019-05-17T22:06:22.279Z,6.43
2019-05-17T22:08:52.468Z,6.03
2019-05-17T22:11:22.640Z,6.25
2019-05-17T22:13:52.647Z,5.67
2019-05-17T22:16:24.783Z,5.60
2019-05-17T22:18:54.413Z,7.43
2019-05-17T22:21:24.371Z,6.63
2019-05-17T22:23:54.307Z,7.20
2019-05-17T22:26:24.253Z,6.47
2019-05-17T22:28:54.190Z,6.57
2019-05-17T22:31:24.295Z,7.07
2019-05-17T22:33:54.444Z,6.80
2019-05-17T22:36:24.597Z,6.70
2019-05-17T22:38:54.670Z,6.60
2019-05-17T22:41:24.703Z,6.35
2019-05-17T22:43:54.641Z,6.30
2019-05-17T22:46:35.494Z,6.47
2019-05-17T22:48:56.395Z,6.67
2019-05-17T22:51:26.348Z,6.37
2019-05-17T22:53:56.277Z,6.05
2019-05-17T22:56:26.219Z,6.47
2019-05-17T22:58:56.252Z,6.15
2019-05-17T23:01:26.268Z,5.97
2019-05-17T23:03:56.301Z,6.15
2019-05-17T23:06:26.326Z,6.57
2019-05-17T23:08:56.374Z,5.70
2019-05-17T23:11:26.363Z,6.20
2019-05-17T23:13:56.312Z,5.97
2019-05-17T23:16:26.259Z,6.05
2019-05-17T23:19:08.914Z,6.33
2019-05-17T23:21:39.359Z,5.97
2019-05-17T23:24:09.811Z,6.57
2019-05-17T23:26:39.745Z,6.37
2019-05-17T23:29:09.736Z,5.40
2019-05-17T23:31:39.703Z,6.13
2019-05-17T23:34:09.707Z,6.17
2019-05-17T23:36:39.804Z,5.97
2019-05-17T23:39:09.966Z,5.90
2019-05-17T23:41:40.033Z,6.00
2019-05-17T23:44:09.991Z,5.53
2019-05-17T23:46:40.079Z,6.07
2019-05-17T23:49:10.161Z,6.58
2019-05-17T23:51:40.195Z,5.70
2019-05-17T23:54:10.330Z,6.70
2019-05-17T23:56:40.401Z,6.10
2019-05-17T23:59:10.423Z,6.17
